sensor_id;sensor_type;location;lat;lon;timestamp;P1;durP1;ratioP1;P2;durP2;ratioP2
20619;SDS011;10469;42.720;23.252;2023-09-18T00:00:22;20.35;;;13.32;;
20619;SDS011;10469;42.720;23.252;2023-09-18T00:02:47;15.43;;;13.00;;
20619;SDS011;10469;42.720;23.252;2023-09-18T00:05:13;15.80;;;13.15;;
20619;SDS011;10469;42.720;23.252;2023-09-18T00:07:41;17.85;;;13.15;;
20619;SDS011;10469;42.720;23.252;2023-09-18T00:10:11;18.77;;;14.05;;
20619;SDS011;10469;42.720;23.252;2023-09-18T00:12:37;17.52;;;13.07;;
20619;SDS011;10469;42.720;23.252;2023-09-18T00:15:04;18.05;;;14.55;;
20619;SDS011;10469;42.720;23.252;2023-09-18T00:17:30;21.08;;;18.58;;
20619;SDS011;10469;42.720;23.252;2023-09-18T00:19:56;20.63;;;14.95;;
20619;SDS011;10469;42.720;23.252;2023-09-18T00:22:21;21.58;;;15.55;;
20619;SDS011;10469;42.720;23.252;2023-09-18T00:24:47;25.35;;;16.60;;
20619;SDS011;10469;42.720;23.252;2023-09-18T00:27:13;19.10;;;14.70;;
20619;SDS011;10469;42.720;23.252;2023-09-18T00:29:38;20.77;;;15.85;;
20619;SDS011;10469;42.720;23.252;2023-09-18T00:32:05;17.20;;;13.68;;
20619;SDS011;10469;42.720;23.252;2023-09-18T00:34:31;28.45;;;20.15;;
20619;SDS011;10469;42.720;23.252;2023-09-18T00:37:00;20.38;;;15.93;;
20619;SDS011;10469;42.720;23.252;2023-09-18T00:39:26;22.52;;;16.27;;
20619;SDS011;10469;42.720;23.252;2023-09-18T00:41:51;25.35;;;17.48;;
20619;SDS011;10469;42.720;23.252;2023-09-18T00:44:22;18.20;;;15.50;;
20619;SDS011;10469;42.720;23.252;2023-09-18T00:46:48;19.83;;;15.55;;
20619;SDS011;10469;42.720;23.252;2023-09-18T00:49:15;21.83;;;17.95;;
20619;SDS011;10469;42.720;23.252;2023-09-18T00:51:43;24.17;;;18.88;;
20619;SDS011;10469;42.720;23.252;2023-09-18T00:54:09;19.75;;;16.20;;
20619;SDS011;10469;42.720;23.252;2023-09-18T00:56:36;22.27;;;19.42;;
20619;SDS011;10469;42.720;23.252;2023-09-18T00:59:01;23.63;;;17.00;;
20619;SDS011;10469;42.720;23.252;2023-09-18T01:01:30;21.55;;;17.20;;
20619;SDS011;10469;42.720;23.252;2023-09-18T01:03:57;19.50;;;16.73;;
20619;SDS011;10469;42.720;23.252;2023-09-18T01:06:24;24.05;;;15.98;;
20619;SDS011;10469;42.720;23.252;2023-09-18T01:08:53;22.85;;;16.83;;
20619;SDS011;10469;42.720;23.252;2023-09-18T01:11:23;23.65;;;17.98;;
20619;SDS011;10469;42.720;23.252;2023-09-18T01:17:19;20.27;;;17.17;;
20619;SDS011;10469;42.720;23.252;2023-09-18T01:19:41;20.85;;;16.83;;
20619;SDS011;10469;42.720;23.252;2023-09-18T01:22:09;24.17;;;16.90;;
20619;SDS011;10469;42.720;23.252;2023-09-18T01:24:36;23.05;;;18.42;;
20619;SDS011;10469;42.720;23.252;2023-09-18T01:27:03;21.02;;;17.58;;
20619;SDS011;10469;42.720;23.252;2023-09-18T01:29:29;21.67;;;16.92;;
20619;SDS011;10469;42.720;23.252;2023-09-18T01:31:56;25.40;;;16.65;;
20619;SDS011;10469;42.720;23.252;2023-09-18T01:34:24;19.48;;;15.75;;
20619;SDS011;10469;42.720;23.252;2023-09-18T01:36:53;25.58;;;18.05;;
20619;SDS011;10469;42.720;23.252;2023-09-18T01:39:21;21.88;;;15.98;;
20619;SDS011;10469;42.720;23.252;2023-09-18T01:41:49;21.70;;;16.27;;
20619;SDS011;10469;42.720;23.252;2023-09-18T01:44:15;24.00;;;17.77;;
20619;SDS011;10469;42.720;23.252;2023-09-18T01:46:41;22.30;;;17.52;;
20619;SDS011;10469;42.720;23.252;2023-09-18T01:49:09;21.50;;;16.60;;
20619;SDS011;10469;42.720;23.252;2023-09-18T01:51:35;23.75;;;17.52;;
20619;SDS011;10469;42.720;23.252;2023-09-18T01:54:00;21.33;;;16.98;;
20619;SDS011;10469;42.720;23.252;2023-09-18T01:56:26;20.67;;;16.42;;
20619;SDS011;10469;42.720;23.252;2023-09-18T01:58:51;21.20;;;16.25;;
20619;SDS011;10469;42.720;23.252;2023-09-18T02:01:17;23.88;;;16.60;;
20619;SDS011;10469;42.720;23.252;2023-09-18T02:03:42;21.27;;;16.23;;
20619;SDS011;10469;42.720;23.252;2023-09-18T02:06:08;22.95;;;16.15;;
20619;SDS011;10469;42.720;23.252;2023-09-18T02:08:34;23.40;;;17.05;;
20619;SDS011;10469;42.720;23.252;2023-09-18T02:11:00;20.42;;;17.48;;
20619;SDS011;10469;42.720;23.252;2023-09-18T02:13:26;25.75;;;17.35;;
20619;SDS011;10469;42.720;23.252;2023-09-18T02:15:51;20.73;;;17.27;;
20619;SDS011;10469;42.720;23.252;2023-09-18T02:18:18;25.13;;;18.33;;
20619;SDS011;10469;42.720;23.252;2023-09-18T02:20:44;30.98;;;19.67;;
20619;SDS011;10469;42.720;23.252;2023-09-18T02:23:12;24.65;;;19.42;;
20619;SDS011;10469;42.720;23.252;2023-09-18T02:25:38;21.13;;;17.73;;
20619;SDS011;10469;42.720;23.252;2023-09-18T02:28:05;19.15;;;16.95;;
20619;SDS011;10469;42.720;23.252;2023-09-18T02:30:31;27.75;;;18.42;;
20619;SDS011;10469;42.720;23.252;2023-09-18T02:32:57;23.27;;;18.48;;
20619;SDS011;10469;42.720;23.252;2023-09-18T02:35:22;24.17;;;17.92;;
20619;SDS011;10469;42.720;23.252;2023-09-18T02:37:48;26.85;;;18.48;;
20619;SDS011;10469;42.720;23.252;2023-09-18T02:40:13;22.15;;;18.55;;
20619;SDS011;10469;42.720;23.252;2023-09-18T02:42:39;24.27;;;19.55;;
20619;SDS011;10469;42.720;23.252;2023-09-18T02:45:05;25.90;;;20.98;;
20619;SDS011;10469;42.720;23.252;2023-09-18T02:47:31;29.63;;;19.42;;
20619;SDS011;10469;42.720;23.252;2023-09-18T02:49:57;24.05;;;18.73;;
20619;SDS011;10469;42.720;23.252;2023-09-18T02:52:22;27.27;;;18.77;;
20619;SDS011;10469;42.720;23.252;2023-09-18T02:54:48;25.88;;;19.02;;
20619;SDS011;10469;42.720;23.252;2023-09-18T02:57:13;24.35;;;19.83;;
20619;SDS011;10469;42.720;23.252;2023-09-18T02:59:39;25.95;;;19.90;;
20619;SDS011;10469;42.720;23.252;2023-09-18T03:02:05;22.27;;;19.35;;
20619;SDS011;10469;42.720;23.252;2023-09-18T03:04:31;26.95;;;19.75;;
20619;SDS011;10469;42.720;23.252;2023-09-18T03:06:56;22.13;;;19.60;;
20619;SDS011;10469;42.720;23.252;2023-09-18T03:09:22;28.10;;;19.40;;
20619;SDS011;10469;42.720;23.252;2023-09-18T03:11:47;23.42;;;19.02;;
20619;SDS011;10469;42.720;23.252;2023-09-18T03:14:13;23.52;;;18.58;;
20619;SDS011;10469;42.720;23.252;2023-09-18T03:16:38;24.05;;;18.33;;
20619;SDS011;10469;42.720;23.252;2023-09-18T03:19:04;24.55;;;18.77;;
20619;SDS011;10469;42.720;23.252;2023-09-18T03:21:29;28.92;;;18.15;;
20619;SDS011;10469;42.720;23.252;2023-09-18T03:23:58;26.40;;;18.73;;
20619;SDS011;10469;42.720;23.252;2023-09-18T03:26:24;22.05;;;16.73;;
20619;SDS011;10469;42.720;23.252;2023-09-18T03:28:49;26.60;;;17.38;;
20619;SDS011;10469;42.720;23.252;2023-09-18T03:31:15;20.63;;;16.58;;
20619;SDS011;10469;42.720;23.252;2023-09-18T03:33:40;30.13;;;17.77;;
20619;SDS011;10469;42.720;23.252;2023-09-18T03:36:06;19.70;;;16.65;;
20619;SDS011;10469;42.720;23.252;2023-09-18T03:38:33;20.35;;;17.05;;
20619;SDS011;10469;42.720;23.252;2023-09-18T03:41:00;23.00;;;17.85;;
20619;SDS011;10469;42.720;23.252;2023-09-18T03:43:26;23.23;;;17.88;;
20619;SDS011;10469;42.720;23.252;2023-09-18T03:45:52;21.35;;;17.08;;
20619;SDS011;10469;42.720;23.252;2023-09-18T03:48:17;21.77;;;17.27;;
20619;SDS011;10469;42.720;23.252;2023-09-18T03:50:43;23.27;;;17.63;;
20619;SDS011;10469;42.720;23.252;2023-09-18T03:53:09;25.58;;;17.88;;
20619;SDS011;10469;42.720;23.252;2023-09-18T03:55:35;23.70;;;17.92;;
20619;SDS011;10469;42.720;23.252;2023-09-18T03:58:00;25.92;;;18.38;;
20619;SDS011;10469;42.720;23.252;2023-09-18T04:00:26;29.02;;;19.90;;
20619;SDS011;10469;42.720;23.252;2023-09-18T04:02:52;23.73;;;19.23;;
20619;SDS011;10469;42.720;23.252;2023-09-18T04:05:17;27.98;;;20.48;;
20619;SDS011;10469;42.720;23.252;2023-09-18T04:07:43;24.08;;;19.63;;
20619;SDS011;10469;42.720;23.252;2023-09-18T04:10:11;26.92;;;20.02;;
20619;SDS011;10469;42.720;23.252;2023-09-18T04:12:43;23.15;;;19.23;;
20619;SDS011;10469;42.720;23.252;2023-09-18T04:15:12;27.25;;;20.88;;
20619;SDS011;10469;42.720;23.252;2023-09-18T04:17:39;30.42;;;21.88;;
20619;SDS011;10469;42.720;23.252;2023-09-18T04:20:05;29.02;;;22.92;;
20619;SDS011;10469;42.720;23.252;2023-09-18T04:22:31;30.33;;;22.02;;
20619;SDS011;10469;42.720;23.252;2023-09-18T04:24:56;28.50;;;23.25;;
20619;SDS011;10469;42.720;23.252;2023-09-18T04:27:22;31.17;;;22.83;;
20619;SDS011;10469;42.720;23.252;2023-09-18T04:29:47;30.85;;;23.27;;
20619;SDS011;10469;42.720;23.252;2023-09-18T04:32:13;31.58;;;22.95;;
20619;SDS011;10469;42.720;23.252;2023-09-18T04:34:38;34.92;;;23.17;;
20619;SDS011;10469;42.720;23.252;2023-09-18T04:37:04;31.02;;;22.33;;
20619;SDS011;10469;42.720;23.252;2023-09-18T04:39:29;30.92;;;22.25;;
20619;SDS011;10469;42.720;23.252;2023-09-18T04:41:55;34.33;;;22.67;;
20619;SDS011;10469;42.720;23.252;2023-09-18T04:44:21;33.35;;;21.45;;
20619;SDS011;10469;42.720;23.252;2023-09-18T04:46:46;32.70;;;21.23;;
20619;SDS011;10469;42.720;23.252;2023-09-18T04:49:12;30.10;;;21.63;;
20619;SDS011;10469;42.720;23.252;2023-09-18T04:51:38;35.45;;;22.13;;
20619;SDS011;10469;42.720;23.252;2023-09-18T04:54:06;29.50;;;21.73;;
20619;SDS011;10469;42.720;23.252;2023-09-18T04:56:32;29.55;;;22.02;;
20619;SDS011;10469;42.720;23.252;2023-09-18T04:58:58;32.08;;;20.65;;
20619;SDS011;10469;42.720;23.252;2023-09-18T05:01:24;32.85;;;20.88;;
20619;SDS011;10469;42.720;23.252;2023-09-18T05:03:50;29.77;;;20.58;;
20619;SDS011;10469;42.720;23.252;2023-09-18T05:06:16;27.80;;;19.65;;
20619;SDS011;10469;42.720;23.252;2023-09-18T05:08:43;32.58;;;19.70;;
20619;SDS011;10469;42.720;23.252;2023-09-18T05:11:09;28.55;;;19.58;;
20619;SDS011;10469;42.720;23.252;2023-09-18T05:13:34;25.83;;;18.23;;
20619;SDS011;10469;42.720;23.252;2023-09-18T05:16:00;26.00;;;17.73;;
20619;SDS011;10469;42.720;23.252;2023-09-18T05:18:26;30.42;;;17.70;;
20619;SDS011;10469;42.720;23.252;2023-09-18T05:20:51;27.15;;;17.95;;
20619;SDS011;10469;42.720;23.252;2023-09-18T05:23:17;32.30;;;18.50;;
20619;SDS011;10469;42.720;23.252;2023-09-18T05:25:43;32.15;;;17.65;;
20619;SDS011;10469;42.720;23.252;2023-09-18T05:28:09;22.00;;;16.83;;
20619;SDS011;10469;42.720;23.252;2023-09-18T05:30:35;23.60;;;15.65;;
20619;SDS011;10469;42.720;23.252;2023-09-18T05:33:03;26.23;;;15.40;;
20619;SDS011;10469;42.720;23.252;2023-09-18T05:35:39;26.55;;;14.88;;
20619;SDS011;10469;42.720;23.252;2023-09-18T05:38:05;29.52;;;15.73;;
20619;SDS011;10469;42.720;23.252;2023-09-18T05:40:32;20.67;;;14.98;;
20619;SDS011;10469;42.720;23.252;2023-09-18T05:42:57;25.10;;;14.07;;
20619;SDS011;10469;42.720;23.252;2023-09-18T05:45:24;20.48;;;14.27;;
20619;SDS011;10469;42.720;23.252;2023-09-18T05:47:51;19.33;;;13.73;;
20619;SDS011;10469;42.720;23.252;2023-09-18T05:50:18;16.45;;;11.73;;
20619;SDS011;10469;42.720;23.252;2023-09-18T05:52:46;20.45;;;13.43;;
20619;SDS011;10469;42.720;23.252;2023-09-18T05:55:14;15.77;;;12.25;;
20619;SDS011;10469;42.720;23.252;2023-09-18T05:57:42;19.27;;;12.23;;
20619;SDS011;10469;42.720;23.252;2023-09-18T06:00:07;16.90;;;11.88;;
20619;SDS011;10469;42.720;23.252;2023-09-18T06:02:38;22.83;;;13.15;;
20619;SDS011;10469;42.720;23.252;2023-09-18T06:05:05;20.20;;;13.50;;
20619;SDS011;10469;42.720;23.252;2023-09-18T06:07:31;17.05;;;14.10;;
20619;SDS011;10469;42.720;23.252;2023-09-18T06:09:57;18.02;;;14.82;;
20619;SDS011;10469;42.720;23.252;2023-09-18T06:12:24;16.30;;;14.43;;
20619;SDS011;10469;42.720;23.252;2023-09-18T06:14:50;19.10;;;14.55;;
20619;SDS011;10469;42.720;23.252;2023-09-18T06:17:16;20.50;;;15.00;;
20619;SDS011;10469;42.720;23.252;2023-09-18T06:19:42;21.85;;;16.10;;
20619;SDS011;10469;42.720;23.252;2023-09-18T06:22:09;22.30;;;15.45;;
20619;SDS011;10469;42.720;23.252;2023-09-18T06:24:35;17.40;;;15.25;;
20619;SDS011;10469;42.720;23.252;2023-09-18T06:27:01;19.92;;;16.05;;
20619;SDS011;10469;42.720;23.252;2023-09-18T06:29:29;25.38;;;16.67;;
20619;SDS011;10469;42.720;23.252;2023-09-18T06:31:55;19.17;;;15.73;;
20619;SDS011;10469;42.720;23.252;2023-09-18T06:34:21;25.70;;;15.18;;
20619;SDS011;10469;42.720;23.252;2023-09-18T06:36:47;20.77;;;15.98;;
20619;SDS011;10469;42.720;23.252;2023-09-18T06:39:12;20.83;;;15.75;;
20619;SDS011;10469;42.720;23.252;2023-09-18T06:41:38;25.50;;;17.52;;
20619;SDS011;10469;42.720;23.252;2023-09-18T06:44:04;23.23;;;16.58;;
20619;SDS011;10469;42.720;23.252;2023-09-18T06:46:30;25.42;;;16.50;;
20619;SDS011;10469;42.720;23.252;2023-09-18T06:48:55;23.73;;;15.50;;
20619;SDS011;10469;42.720;23.252;2023-09-18T06:51:21;23.25;;;15.07;;
20619;SDS011;10469;42.720;23.252;2023-09-18T06:53:48;20.83;;;14.98;;
20619;SDS011;10469;42.720;23.252;2023-09-18T06:56:13;18.73;;;14.57;;
20619;SDS011;10469;42.720;23.252;2023-09-18T06:58:39;22.80;;;15.07;;
20619;SDS011;10469;42.720;23.252;2023-09-18T07:01:04;21.13;;;15.77;;
20619;SDS011;10469;42.720;23.252;2023-09-18T07:03:34;20.50;;;16.05;;
20619;SDS011;10469;42.720;23.252;2023-09-18T07:06:02;18.00;;;13.30;;
20619;SDS011;10469;42.720;23.252;2023-09-18T07:08:29;21.60;;;13.30;;
20619;SDS011;10469;42.720;23.252;2023-09-18T07:10:56;15.68;;;12.35;;
20619;SDS011;10469;42.720;23.252;2023-09-18T07:13:22;15.27;;;12.20;;
20619;SDS011;10469;42.720;23.252;2023-09-18T07:15:47;14.15;;;11.60;;
20619;SDS011;10469;42.720;23.252;2023-09-18T07:18:13;20.27;;;12.50;;
20619;SDS011;10469;42.720;23.252;2023-09-18T07:20:40;17.42;;;12.80;;
20619;SDS011;10469;42.720;23.252;2023-09-18T07:23:06;17.90;;;12.73;;
20619;SDS011;10469;42.720;23.252;2023-09-18T07:25:32;17.05;;;11.65;;
20619;SDS011;10469;42.720;23.252;2023-09-18T07:27:57;17.27;;;12.20;;
20619;SDS011;10469;42.720;23.252;2023-09-18T07:30:23;20.75;;;12.95;;
20619;SDS011;10469;42.720;23.252;2023-09-18T07:32:52;20.58;;;11.60;;
20619;SDS011;10469;42.720;23.252;2023-09-18T07:35:23;15.68;;;11.68;;
20619;SDS011;10469;42.720;23.252;2023-09-18T07:37:49;19.60;;;12.13;;
20619;SDS011;10469;42.720;23.252;2023-09-18T07:40:15;14.70;;;11.63;;
20619;SDS011;10469;42.720;23.252;2023-09-18T07:42:43;13.00;;;11.45;;
20619;SDS011;10469;42.720;23.252;2023-09-18T07:45:10;17.92;;;11.88;;
20619;SDS011;10469;42.720;23.252;2023-09-18T07:47:35;14.27;;;12.13;;
20619;SDS011;10469;42.720;23.252;2023-09-18T07:50:01;13.13;;;11.73;;
20619;SDS011;10469;42.720;23.252;2023-09-18T07:52:27;13.82;;;11.82;;
20619;SDS011;10469;42.720;23.252;2023-09-18T07:54:54;16.92;;;11.80;;
20619;SDS011;10469;42.720;23.252;2023-09-18T07:57:20;17.20;;;11.45;;
20619;SDS011;10469;42.720;23.252;2023-09-18T07:59:47;15.20;;;11.75;;
20619;SDS011;10469;42.720;23.252;2023-09-18T08:02:13;12.68;;;11.43;;
20619;SDS011;10469;42.720;23.252;2023-09-18T08:04:39;14.55;;;12.07;;
20619;SDS011;10469;42.720;23.252;2023-09-18T08:07:04;16.80;;;12.85;;
20619;SDS011;10469;42.720;23.252;2023-09-18T08:09:33;13.70;;;11.98;;
20619;SDS011;10469;42.720;23.252;2023-09-18T08:12:02;18.38;;;13.13;;
20619;SDS011;10469;42.720;23.252;2023-09-18T08:14:28;21.10;;;13.52;;
20619;SDS011;10469;42.720;23.252;2023-09-18T08:16:57;13.77;;;11.30;;
20619;SDS011;10469;42.720;23.252;2023-09-18T08:19:24;17.02;;;11.13;;
20619;SDS011;10469;42.720;23.252;2023-09-18T08:21:52;17.00;;;11.50;;
20619;SDS011;10469;42.720;23.252;2023-09-18T08:24:19;15.40;;;11.10;;
20619;SDS011;10469;42.720;23.252;2023-09-18T08:26:46;15.20;;;10.93;;
20619;SDS011;10469;42.720;23.252;2023-09-18T08:29:11;17.23;;;10.02;;
20619;SDS011;10469;42.720;23.252;2023-09-18T08:31:37;13.52;;;10.75;;
20619;SDS011;10469;42.720;23.252;2023-09-18T08:34:02;11.20;;;10.00;;
20619;SDS011;10469;42.720;23.252;2023-09-18T08:36:28;14.55;;;10.85;;
20619;SDS011;10469;42.720;23.252;2023-09-18T08:38:55;15.10;;;10.55;;
20619;SDS011;10469;42.720;23.252;2023-09-18T08:41:21;10.40;;;9.32;;
20619;SDS011;10469;42.720;23.252;2023-09-18T08:43:51;12.27;;;9.50;;
20619;SDS011;10469;42.720;23.252;2023-09-18T08:46:21;10.45;;;9.20;;
20619;SDS011;10469;42.720;23.252;2023-09-18T08:48:48;11.02;;;8.98;;
20619;SDS011;10469;42.720;23.252;2023-09-18T08:51:15;13.13;;;9.57;;
20619;SDS011;10469;42.720;23.252;2023-09-18T08:53:43;10.98;;;9.32;;
20619;SDS011;10469;42.720;23.252;2023-09-18T08:56:09;12.98;;;9.50;;
20619;SDS011;10469;42.720;23.252;2023-09-18T08:58:36;11.63;;;9.60;;
20619;SDS011;10469;42.720;23.252;2023-09-18T09:01:05;12.77;;;9.50;;
20619;SDS011;10469;42.720;23.252;2023-09-18T09:03:35;10.60;;;9.35;;
20619;SDS011;10469;42.720;23.252;2023-09-18T09:06:02;12.23;;;9.40;;
20619;SDS011;10469;42.720;23.252;2023-09-18T09:08:28;13.23;;;9.50;;
20619;SDS011;10469;42.720;23.252;2023-09-18T09:10:54;15.50;;;10.18;;
20619;SDS011;10469;42.720;23.252;2023-09-18T09:13:19;14.98;;;9.30;;
20619;SDS011;10469;42.720;23.252;2023-09-18T09:15:51;11.00;;;8.43;;
20619;SDS011;10469;42.720;23.252;2023-09-18T09:18:21;13.30;;;9.70;;
20619;SDS011;10469;42.720;23.252;2023-09-18T09:23:44;10.63;;;8.88;;
20619;SDS011;10469;42.720;23.252;2023-09-18T09:26:15;10.73;;;8.45;;
20619;SDS011;10469;42.720;23.252;2023-09-18T09:28:42;10.73;;;8.85;;
20619;SDS011;10469;42.720;23.252;2023-09-18T09:31:09;12.70;;;8.98;;
20619;SDS011;10469;42.720;23.252;2023-09-18T09:33:40;9.38;;;7.88;;
20619;SDS011;10469;42.720;23.252;2023-09-18T09:36:18;12.32;;;8.02;;
20619;SDS011;10469;42.720;23.252;2023-09-18T09:38:44;10.45;;;9.35;;
20619;SDS011;10469;42.720;23.252;2023-09-18T09:41:13;15.27;;;8.63;;
20619;SDS011;10469;42.720;23.252;2023-09-18T09:43:41;15.02;;;8.98;;
20619;SDS011;10469;42.720;23.252;2023-09-18T09:46:07;9.32;;;7.22;;
20619;SDS011;10469;42.720;23.252;2023-09-18T09:48:57;10.55;;;7.47;;
20619;SDS011;10469;42.720;23.252;2023-09-18T09:51:26;11.13;;;8.07;;
20619;SDS011;10469;42.720;23.252;2023-09-18T09:53:53;10.18;;;8.93;;
20619;SDS011;10469;42.720;23.252;2023-09-18T09:56:18;10.50;;;8.95;;
20619;SDS011;10469;42.720;23.252;2023-09-18T09:59:02;10.18;;;8.02;;
20619;SDS011;10469;42.720;23.252;2023-09-18T10:01:33;9.25;;;8.27;;
20619;SDS011;10469;42.720;23.252;2023-09-18T10:04:05;8.88;;;7.50;;
20619;SDS011;10469;42.720;23.252;2023-09-18T10:06:33;11.88;;;8.13;;
20619;SDS011;10469;42.720;23.252;2023-09-18T10:09:00;10.30;;;8.02;;
20619;SDS011;10469;42.720;23.252;2023-09-18T10:11:29;10.48;;;7.30;;
20619;SDS011;10469;42.720;23.252;2023-09-18T10:14:01;9.95;;;7.47;;
20619;SDS011;10469;42.720;23.252;2023-09-18T10:16:37;8.98;;;8.02;;
20619;SDS011;10469;42.720;23.252;2023-09-18T10:22:04;7.80;;;7.00;;
20619;SDS011;10469;42.720;23.252;2023-09-18T10:24:34;14.63;;;7.78;;
20619;SDS011;10469;42.720;23.252;2023-09-18T10:27:04;10.68;;;7.32;;
20619;SDS011;10469;42.720;23.252;2023-09-18T10:29:32;9.48;;;7.43;;
20619;SDS011;10469;42.720;23.252;2023-09-18T10:32:05;9.10;;;6.95;;
20619;SDS011;10469;42.720;23.252;2023-09-18T10:34:35;10.98;;;7.32;;
20619;SDS011;10469;42.720;23.252;2023-09-18T10:37:02;11.82;;;7.53;;
20619;SDS011;10469;42.720;23.252;2023-09-18T10:39:36;9.70;;;7.03;;
20619;SDS011;10469;42.720;23.252;2023-09-18T10:42:07;9.00;;;6.07;;
20619;SDS011;10469;42.720;23.252;2023-09-18T10:44:34;8.70;;;6.70;;
20619;SDS011;10469;42.720;23.252;2023-09-18T10:47:00;10.85;;;6.90;;
20619;SDS011;10469;42.720;23.252;2023-09-18T10:49:30;10.15;;;6.32;;
20619;SDS011;10469;42.720;23.252;2023-09-18T10:51:57;9.07;;;6.00;;
20619;SDS011;10469;42.720;23.252;2023-09-18T10:54:25;6.13;;;5.05;;
20619;SDS011;10469;42.720;23.252;2023-09-18T10:56:51;6.90;;;6.00;;
20619;SDS011;10469;42.720;23.252;2023-09-18T10:59:17;8.60;;;5.55;;
20619;SDS011;10469;42.720;23.252;2023-09-18T11:01:44;6.07;;;5.20;;
20619;SDS011;10469;42.720;23.252;2023-09-18T11:04:11;6.47;;;5.10;;
20619;SDS011;10469;42.720;23.252;2023-09-18T11:09:21;7.25;;;5.75;;
20619;SDS011;10469;42.720;23.252;2023-09-18T11:20:08;6.45;;;4.78;;
20619;SDS011;10469;42.720;23.252;2023-09-18T11:22:36;5.88;;;4.25;;
20619;SDS011;10469;42.720;23.252;2023-09-18T11:27:55;8.68;;;5.38;;
20619;SDS011;10469;42.720;23.252;2023-09-18T11:30:23;7.53;;;5.18;;
20619;SDS011;10469;42.720;23.252;2023-09-18T11:32:50;6.65;;;4.78;;
20619;SDS011;10469;42.720;23.252;2023-09-18T11:35:17;5.78;;;5.10;;
20619;SDS011;10469;42.720;23.252;2023-09-18T11:37:44;5.45;;;4.93;;
20619;SDS011;10469;42.720;23.252;2023-09-18T11:46:00;6.63;;;4.88;;
20619;SDS011;10469;42.720;23.252;2023-09-18T11:48:30;10.30;;;5.55;;
20619;SDS011;10469;42.720;23.252;2023-09-18T11:51:01;12.80;;;5.90;;
20619;SDS011;10469;42.720;23.252;2023-09-18T11:53:33;10.82;;;5.22;;
20619;SDS011;10469;42.720;23.252;2023-09-18T11:56:02;8.80;;;5.63;;
20619;SDS011;10469;42.720;23.252;2023-09-18T11:58:28;5.88;;;4.95;;
20619;SDS011;10469;42.720;23.252;2023-09-18T12:00:53;9.18;;;5.20;;
20619;SDS011;10469;42.720;23.252;2023-09-18T12:03:20;5.35;;;4.80;;
20619;SDS011;10469;42.720;23.252;2023-09-18T12:06:00;7.57;;;5.18;;
20619;SDS011;10469;42.720;23.252;2023-09-18T12:08:31;9.82;;;4.80;;
20619;SDS011;10469;42.720;23.252;2023-09-18T12:10:57;7.90;;;4.82;;
20619;SDS011;10469;42.720;23.252;2023-09-18T12:13:27;10.50;;;5.03;;
20619;SDS011;10469;42.720;23.252;2023-09-18T12:16:11;7.30;;;5.15;;
20619;SDS011;10469;42.720;23.252;2023-09-18T12:18:36;9.45;;;5.20;;
20619;SDS011;10469;42.720;23.252;2023-09-18T12:21:09;6.78;;;4.90;;
20619;SDS011;10469;42.720;23.252;2023-09-18T12:23:39;7.38;;;5.15;;
20619;SDS011;10469;42.720;23.252;2023-09-18T12:26:05;6.13;;;5.20;;
20619;SDS011;10469;42.720;23.252;2023-09-18T12:28:35;7.50;;;5.07;;
20619;SDS011;10469;42.720;23.252;2023-09-18T12:31:01;6.55;;;4.88;;
20619;SDS011;10469;42.720;23.252;2023-09-18T12:33:30;6.07;;;4.85;;
20619;SDS011;10469;42.720;23.252;2023-09-18T12:35:59;7.43;;;5.28;;
20619;SDS011;10469;42.720;23.252;2023-09-18T12:38:25;5.85;;;4.93;;
20619;SDS011;10469;42.720;23.252;2023-09-18T12:40:53;7.03;;;4.82;;
20619;SDS011;10469;42.720;23.252;2023-09-18T12:43:20;6.28;;;4.85;;
20619;SDS011;10469;42.720;23.252;2023-09-18T12:45:50;10.65;;;5.00;;
20619;SDS011;10469;42.720;23.252;2023-09-18T12:48:17;13.23;;;5.20;;
20619;SDS011;10469;42.720;23.252;2023-09-18T12:50:43;9.40;;;4.88;;
20619;SDS011;10469;42.720;23.252;2023-09-18T12:53:09;7.10;;;4.93;;
20619;SDS011;10469;42.720;23.252;2023-09-18T12:55:35;10.88;;;4.82;;
20619;SDS011;10469;42.720;23.252;2023-09-18T12:58:02;9.52;;;5.07;;
20619;SDS011;10469;42.720;23.252;2023-09-18T13:00:32;10.77;;;4.55;;
20619;SDS011;10469;42.720;23.252;2023-09-18T13:02:59;7.22;;;5.10;;
20619;SDS011;10469;42.720;23.252;2023-09-18T13:05:25;7.93;;;5.10;;
20619;SDS011;10469;42.720;23.252;2023-09-18T13:07:51;6.57;;;5.03;;
20619;SDS011;10469;42.720;23.252;2023-09-18T13:10:18;10.82;;;4.82;;
20619;SDS011;10469;42.720;23.252;2023-09-18T13:12:50;7.40;;;4.90;;
20619;SDS011;10469;42.720;23.252;2023-09-18T13:15:30;8.18;;;5.05;;
20619;SDS011;10469;42.720;23.252;2023-09-18T13:17:58;9.85;;;5.43;;
20619;SDS011;10469;42.720;23.252;2023-09-18T13:20:25;6.20;;;4.72;;
20619;SDS011;10469;42.720;23.252;2023-09-18T13:22:54;7.93;;;5.07;;
20619;SDS011;10469;42.720;23.252;2023-09-18T13:27:48;8.40;;;4.65;;
20619;SDS011;10469;42.720;23.252;2023-09-18T13:30:14;8.93;;;5.30;;
20619;SDS011;10469;42.720;23.252;2023-09-18T13:32:42;5.43;;;4.63;;
20619;SDS011;10469;42.720;23.252;2023-09-18T13:35:08;5.30;;;4.63;;
20619;SDS011;10469;42.720;23.252;2023-09-18T13:37:38;5.65;;;4.68;;
20619;SDS011;10469;42.720;23.252;2023-09-18T13:40:07;8.10;;;4.97;;
20619;SDS011;10469;42.720;23.252;2023-09-18T13:42:34;10.25;;;4.88;;
20619;SDS011;10469;42.720;23.252;2023-09-18T13:45:00;7.38;;;5.00;;
20619;SDS011;10469;42.720;23.252;2023-09-18T13:47:27;7.95;;;4.97;;
20619;SDS011;10469;42.720;23.252;2023-09-18T13:49:53;7.32;;;4.53;;
20619;SDS011;10469;42.720;23.252;2023-09-18T13:52:22;12.02;;;5.40;;
20619;SDS011;10469;42.720;23.252;2023-09-18T13:54:48;8.50;;;5.38;;
20619;SDS011;10469;42.720;23.252;2023-09-18T13:57:16;11.10;;;5.40;;
20619;SDS011;10469;42.720;23.252;2023-09-18T13:59:43;10.25;;;4.97;;
20619;SDS011;10469;42.720;23.252;2023-09-18T14:02:10;7.72;;;4.80;;
20619;SDS011;10469;42.720;23.252;2023-09-18T14:04:36;7.40;;;4.70;;
20619;SDS011;10469;42.720;23.252;2023-09-18T14:07:01;5.25;;;4.75;;
20619;SDS011;10469;42.720;23.252;2023-09-18T14:09:28;7.70;;;5.15;;
20619;SDS011;10469;42.720;23.252;2023-09-18T14:11:54;7.22;;;4.80;;
20619;SDS011;10469;42.720;23.252;2023-09-18T14:14:21;5.95;;;4.75;;
20619;SDS011;10469;42.720;23.252;2023-09-18T14:16:47;7.28;;;4.85;;
20619;SDS011;10469;42.720;23.252;2023-09-18T14:19:12;5.70;;;4.60;;
20619;SDS011;10469;42.720;23.252;2023-09-18T14:21:38;6.25;;;4.78;;
20619;SDS011;10469;42.720;23.252;2023-09-18T14:24:05;8.38;;;5.00;;
20619;SDS011;10469;42.720;23.252;2023-09-18T14:26:31;6.80;;;4.63;;
20619;SDS011;10469;42.720;23.252;2023-09-18T14:28:56;6.78;;;4.75;;
20619;SDS011;10469;42.720;23.252;2023-09-18T14:31:22;6.10;;;4.82;;
20619;SDS011;10469;42.720;23.252;2023-09-18T14:33:47;6.68;;;4.90;;
20619;SDS011;10469;42.720;23.252;2023-09-18T14:36:13;11.93;;;5.28;;
20619;SDS011;10469;42.720;23.252;2023-09-18T14:38:38;9.98;;;4.95;;
20619;SDS011;10469;42.720;23.252;2023-09-18T14:41:05;6.43;;;4.80;;
20619;SDS011;10469;42.720;23.252;2023-09-18T14:43:32;6.10;;;5.47;;
20619;SDS011;10469;42.720;23.252;2023-09-18T14:45:57;5.80;;;4.88;;